Aviation Digital Data Service (ADDS)

Output produced by METARs form (1428 UTC 23 January 2019)
found at http://www.aviationweather.gov/metar/data/
 
METAR text: LFBD 231400Z AUTO 33011KT 9999 FEW024 OVC084 08/02 Q1003 TEMPO 32015G25KT 4000 -SHRA BKN030TCU
Conditions at: LFBD (BORDEAUX/MERIGNA, FR) observed 1400 UTC 23 January 2019
Temperature: 8.0°C (46°F)
Dewpoint: 2.0°C (36°F) [RH = 66%]
Pressure (altimeter): 29.62 inches Hg (1003.0 mb)
Winds: from the NNW (330 degrees) at 13 MPH (11 knots; 5.7 m/s)
Visibility: 6 or more miles (10+ km)
Ceiling: 8400 feet AGL
Clouds: few clouds at 2400 feet AGL
overcast cloud deck at 8400 feet AGL
Weather: no significant weather observed at this time

METAR text: LFBD 231330Z AUTO 33014KT 9999 FEW036/// SCT049/// BKN062/// ///TCU 08/01 Q1003 TEMPO 32015G25KT 4000 -SHRA
Conditions at: LFBD (BORDEAUX/MERIGNA, FR) observed 1330 UTC 23 January 2019
Temperature: 8.0°C (46°F)
Dewpoint: 1.0°C (34°F) [RH = 61%]
Pressure (altimeter): 29.62 inches Hg (1003.0 mb)
Winds: from the NNW (330 degrees) at 16 MPH (14 knots; 7.2 m/s)
Visibility: 6 or more miles (10+ km)
Ceiling: 6200 feet AGL
Clouds: few clouds at 3600 feet AGL
scattered clouds at 4900 feet AGL
broken clouds at 6200 feet AGL
Weather: no significant weather observed at this time

METAR text: LFBD 231300Z AUTO 32014KT 9999 SCT037 BKN049 BKN062 08/02 Q1003 TEMPO 32015G25KT 4000 -SHRA BKN030TCU
Conditions at: LFBD (BORDEAUX/MERIGNA, FR) observed 1300 UTC 23 January 2019
Temperature: 8.0°C (46°F)
Dewpoint: 2.0°C (36°F) [RH = 66%]
Pressure (altimeter): 29.62 inches Hg (1003.0 mb)
Winds: from the NW (320 degrees) at 16 MPH (14 knots; 7.2 m/s)
Visibility: 6 or more miles (10+ km)
Ceiling: 4900 feet AGL
Clouds: scattered clouds at 3700 feet AGL
broken clouds at 4900 feet AGL
broken clouds at 6200 feet AGL
Weather: no significant weather observed at this time

METAR text: LFBD 231230Z AUTO 33013KT 9999 FEW033 OVC082 08/02 Q1003 TEMPO 32015G25KT 4000 -SHRA BKN030TCU
Conditions at: LFBD (BORDEAUX/MERIGNA, FR) observed 1230 UTC 23 January 2019
Temperature: 8.0°C (46°F)
Dewpoint: 2.0°C (36°F) [RH = 66%]
Pressure (altimeter): 29.62 inches Hg (1003.0 mb)
Winds: from the NNW (330 degrees) at 15 MPH (13 knots; 6.7 m/s)
Visibility: 6 or more miles (10+ km)
Ceiling: 8200 feet AGL
Clouds: few clouds at 3300 feet AGL
overcast cloud deck at 8200 feet AGL
Weather: no significant weather observed at this time

METAR text: LFBD 231200Z AUTO 32014KT 300V360 9999 FEW030 OVC084 08/03 Q1003 TEMPO 32015G25KT 4000 -SHRA BKN030TCU
Conditions at: LFBD (BORDEAUX/MERIGNA, FR) observed 1200 UTC 23 January 2019
Temperature: 8.0°C (46°F)
Dewpoint: 3.0°C (37°F) [RH = 71%]
Pressure (altimeter): 29.62 inches Hg (1003.0 mb)
Winds: from the NW (320 degrees) at 16 MPH (14 knots; 7.2 m/s)
Visibility: 6 or more miles (10+ km)
Ceiling: 8400 feet AGL
Clouds: few clouds at 3000 feet AGL
overcast cloud deck at 8400 feet AGL
Weather: no significant weather observed at this time

METAR text: LFBD 231130Z AUTO 32012KT 9999 FEW023 BKN084 08/03 Q1003 NOSIG
Conditions at: LFBD (BORDEAUX/MERIGNA, FR) observed 1130 UTC 23 January 2019
Temperature: 8.0°C (46°F)
Dewpoint: 3.0°C (37°F) [RH = 71%]
Pressure (altimeter): 29.62 inches Hg (1003.0 mb)
Winds: from the NW (320 degrees) at 14 MPH (12 knots; 6.2 m/s)
Visibility: 6 or more miles (10+ km)
Ceiling: 8400 feet AGL
Clouds: few clouds at 2300 feet AGL
broken clouds at 8400 feet AGL
Weather: no significant weather observed at this time

METAR text: LFBD 231100Z AUTO 33014KT 9999 SCT022 BKN028 BKN078 08/03 Q1003 NOSIG
Conditions at: LFBD (BORDEAUX/MERIGNA, FR) observed 1100 UTC 23 January 2019
Temperature: 8.0°C (46°F)
Dewpoint: 3.0°C (37°F) [RH = 71%]
Pressure (altimeter): 29.62 inches Hg (1003.0 mb)
Winds: from the NNW (330 degrees) at 16 MPH (14 knots; 7.2 m/s)
Visibility: 6 or more miles (10+ km)
Ceiling: 2800 feet AGL
Clouds: scattered clouds at 2200 feet AGL
broken clouds at 2800 feet AGL
broken clouds at 7800 feet AGL
Weather: no significant weather observed at this time

METAR text: LFBD 231030Z AUTO 33013KT 9999 SCT023 SCT072 BKN240 07/04 Q1002 NOSIG
Conditions at: LFBD (BORDEAUX/MERIGNA, FR) observed 1030 UTC 23 January 2019
Temperature: 7.0°C (45°F)
Dewpoint: 4.0°C (39°F) [RH = 81%]
Pressure (altimeter): 29.59 inches Hg (1002.0 mb)
Winds: from the NNW (330 degrees) at 15 MPH (13 knots; 6.7 m/s)
Visibility: 6 or more miles (10+ km)
Ceiling: 24000 feet AGL
Clouds: scattered clouds at 2300 feet AGL
scattered clouds at 7200 feet AGL
broken clouds at 24000 feet AGL
Weather: no significant weather observed at this time

METAR text: LFBD 231000Z AUTO 33014KT 9999 FEW019 BKN070 BKN230 07/04 Q1002 TEMPO 32015G25KT 3000 SHRA BKN020TCU
Conditions at: LFBD (BORDEAUX/MERIGNA, FR) observed 1000 UTC 23 January 2019
Temperature: 7.0°C (45°F)
Dewpoint: 4.0°C (39°F) [RH = 81%]
Pressure (altimeter): 29.59 inches Hg (1002.0 mb)
Winds: from the NNW (330 degrees) at 16 MPH (14 knots; 7.2 m/s)
Visibility: 6 or more miles (10+ km)
Ceiling: 7000 feet AGL
Clouds: few clouds at 1900 feet AGL
broken clouds at 7000 feet AGL
broken clouds at 23000 feet AGL
Weather: no significant weather observed at this time

METAR text: LFBD 230930Z AUTO 32012KT CAVOK 07/05 Q1001 TEMPO 32015G25KT 3000 SHRA BKN020TCU
Conditions at: LFBD (BORDEAUX/MERIGNA, FR) observed 0930 UTC 23 January 2019
Temperature: 7.0°C (45°F)
Dewpoint: 5.0°C (41°F) [RH = 87%]
Pressure (altimeter): 29.56 inches Hg (1001.0 mb)
Winds: from the NW (320 degrees) at 14 MPH (12 knots; 6.2 m/s)
Visibility: 6 or more miles (10+ km)
Ceiling: ceiling and visibility are OK
Clouds: unknown
Weather: no significant weather observed at this time

METAR text: LFBD 230900Z AUTO 33011KT 9999 SCT039 BKN046 BKN052 07/05 Q1001 TEMPO 32015G25KT 3000 SHRA BKN020TCU
Conditions at: LFBD (BORDEAUX/MERIGNA, FR) observed 0900 UTC 23 January 2019
Temperature: 7.0°C (45°F)
Dewpoint: 5.0°C (41°F) [RH = 87%]
Pressure (altimeter): 29.56 inches Hg (1001.0 mb)
Winds: from the NNW (330 degrees) at 13 MPH (11 knots; 5.7 m/s)
Visibility: 6 or more miles (10+ km)
Ceiling: 4600 feet AGL
Clouds: scattered clouds at 3900 feet AGL
broken clouds at 4600 feet AGL
broken clouds at 5200 feet AGL
Weather: no significant weather observed at this time

METAR text: LFBD 230830Z AUTO 32009KT 9999 FEW013/// SCT040/// BKN047/// ///TCU 07/06 Q1000 TEMPO 32015G25KT 3000 SHRA
Conditions at: LFBD (BORDEAUX/MERIGNA, FR) observed 0830 UTC 23 January 2019
Temperature: 7.0°C (45°F)
Dewpoint: 6.0°C (43°F) [RH = 93%]
Pressure (altimeter): 29.53 inches Hg (1000.0 mb)
Winds: from the NW (320 degrees) at 10 MPH (9 knots; 4.6 m/s)
Visibility: 6 or more miles (10+ km)
Ceiling: 4700 feet AGL
Clouds: few clouds at 1300 feet AGL
scattered clouds at 4000 feet AGL
broken clouds at 4700 feet AGL
Weather: no significant weather observed at this time

METAR text: LFBD 230800Z AUTO 34015KT 9999 -RA SCT014/// BKN021/// BKN027/// ///TCU 07/06 Q1000 TEMPO 32015G25KT 3000 SHRA
Conditions at: LFBD (BORDEAUX/MERIGNA, FR) observed 0800 UTC 23 January 2019
Temperature: 7.0°C (45°F)
Dewpoint: 6.0°C (43°F) [RH = 93%]
Pressure (altimeter): 29.53 inches Hg (1000.0 mb)
Winds: from the NNW (340 degrees) at 17 MPH (15 knots; 7.7 m/s)
Visibility: 6 or more miles (10+ km)
Ceiling: 2100 feet AGL
Clouds: scattered clouds at 1400 feet AGL
broken clouds at 2100 feet AGL
broken clouds at 2700 feet AGL
Weather: -RA  (light rain)

METAR text: LFBD 230730Z AUTO 28006KT 260V320 9999 RA SCT013/// BKN021/// BKN032/// ///TCU 07/07 Q0999 TEMPO 32015G25KT 3000 SHRA
Conditions at: LFBD (BORDEAUX/MERIGNA, FR) observed 0730 UTC 23 January 2019
Temperature: 7.0°C (45°F)
Dewpoint: 7.0°C (45°F) [RH = 100%]
Pressure (altimeter): 29.50 inches Hg (999.0 mb)
Winds: from the W (280 degrees) at 7 MPH (6 knots; 3.1 m/s)
Visibility: 6 or more miles (10+ km)
Ceiling: 2100 feet AGL
Clouds: scattered clouds at 1300 feet AGL
broken clouds at 2100 feet AGL
broken clouds at 3200 feet AGL
Weather: RA  (moderate rain)

METAR text: LFBD 230700Z AUTO 27006KT 9999 FEW022 SCT028 BKN037 07/06 Q0999 TEMPO 32015G25KT 3000 SHRA BKN020TCU
Conditions at: LFBD (BORDEAUX/MERIGNA, FR) observed 0700 UTC 23 January 2019
Temperature: 7.0°C (45°F)
Dewpoint: 6.0°C (43°F) [RH = 93%]
Pressure (altimeter): 29.50 inches Hg (999.0 mb)
Winds: from the W (270 degrees) at 7 MPH (6 knots; 3.1 m/s)
Visibility: 6 or more miles (10+ km)
Ceiling: 3700 feet AGL
Clouds: few clouds at 2200 feet AGL
scattered clouds at 2800 feet AGL
broken clouds at 3700 feet AGL
Weather: no significant weather observed at this time

METAR text: LFBD 230630Z AUTO 27005KT 9999 SCT021 BKN029 BKN035 07/06 Q0998 TEMPO 32015G25KT 3000 SHRA BKN020TCU
Conditions at: LFBD (BORDEAUX/MERIGNA, FR) observed 0630 UTC 23 January 2019
Temperature: 7.0°C (45°F)
Dewpoint: 6.0°C (43°F) [RH = 93%]
Pressure (altimeter): 29.47 inches Hg (998.0 mb)
Winds: from the W (270 degrees) at 6 MPH (5 knots; 2.6 m/s)
Visibility: 6 or more miles (10+ km)
Ceiling: 2900 feet AGL
Clouds: scattered clouds at 2100 feet AGL
broken clouds at 2900 feet AGL
broken clouds at 3500 feet AGL
Weather: no significant weather observed at this time

METAR text: LFBD 230600Z AUTO 29003KT 9999 FEW012 BKN032 OVC078 07/06 Q0998 TEMPO 32015G25KT 3000 SHRA BKN020TCU
Conditions at: LFBD (BORDEAUX/MERIGNA, FR) observed 0600 UTC 23 January 2019
Temperature: 7.0°C (45°F)
Dewpoint: 6.0°C (43°F) [RH = 93%]
Pressure (altimeter): 29.47 inches Hg (998.0 mb)
Winds: from the WNW (290 degrees) at 3 MPH (3 knots; 1.5 m/s)
Visibility: 6 or more miles (10+ km)
Ceiling: 3200 feet AGL
Clouds: few clouds at 1200 feet AGL
broken clouds at 3200 feet AGL
overcast cloud deck at 7800 feet AGL
Weather: no significant weather observed at this time

METAR text: LFBD 230530Z AUTO VRB02KT 9999 -RA SCT018/// BKN045/// BKN052/// ///TCU 07/06 Q0998 TEMPO 32015G25KT 3000 SHRA
Conditions at: LFBD (BORDEAUX/MERIGNA, FR) observed 0530 UTC 23 January 2019
Temperature: 7.0°C (45°F)
Dewpoint: 6.0°C (43°F) [RH = 93%]
Pressure (altimeter): 29.47 inches Hg (998.0 mb)
Winds: variable direction winds at 2 MPH (2 knots; 1.0 m/s)
Visibility: 6 or more miles (10+ km)
Ceiling: 4500 feet AGL
Clouds: scattered clouds at 1800 feet AGL
broken clouds at 4500 feet AGL
broken clouds at 5200 feet AGL
Weather: -RA  (light rain)

METAR text: LFBD 230500Z AUTO 00000KT 6000 RA SCT020/// BKN025/// BKN033/// ///TCU 07/06 Q0998 TEMPO 32015G25KT 3000 SHRA
Conditions at: LFBD (BORDEAUX/MERIGNA, FR) observed 0500 UTC 23 January 2019
Temperature: 7.0°C (45°F)
Dewpoint: 6.0°C (43°F) [RH = 93%]
Pressure (altimeter): 29.47 inches Hg (998.0 mb)
Winds: calm
Visibility: 4 miles ( 6 km)
Ceiling: 2500 feet AGL
Clouds: scattered clouds at 2000 feet AGL
broken clouds at 2500 feet AGL
broken clouds at 3300 feet AGL
Weather: RA  (moderate rain)

METAR text: LFBD 230430Z AUTO 00000KT 6000 -RA FEW023/// BKN031/// BKN039/// ///TCU 07/06 Q0999 TEMPO 32015G25KT 3000 SHRA
Conditions at: LFBD (BORDEAUX/MERIGNA, FR) observed 0430 UTC 23 January 2019
Temperature: 7.0°C (45°F)
Dewpoint: 6.0°C (43°F) [RH = 93%]
Pressure (altimeter): 29.50 inches Hg (999.0 mb)
Winds: calm
Visibility: 4 miles ( 6 km)
Ceiling: 3100 feet AGL
Clouds: few clouds at 2300 feet AGL
broken clouds at 3100 feet AGL
broken clouds at 3900 feet AGL
Weather: -RA  (light rain)

METAR text: LFBD 230400Z AUTO 24004KT 9999 -RA FEW023/// BKN034/// BKN042/// ///TCU 07/06 Q0999 TEMPO 3000 SHRA BECMG 32015KT
Conditions at: LFBD (BORDEAUX/MERIGNA, FR) observed 0400 UTC 23 January 2019
Temperature: 7.0°C (45°F)
Dewpoint: 6.0°C (43°F) [RH = 93%]
Pressure (altimeter): 29.50 inches Hg (999.0 mb)
Winds: from the WSW (240 degrees) at 5 MPH (4 knots; 2.1 m/s)
Visibility: 6 or more miles (10+ km)
Ceiling: 3400 feet AGL
Clouds: few clouds at 2300 feet AGL
broken clouds at 3400 feet AGL
broken clouds at 4200 feet AGL
Weather: -RA  (light rain)

METAR text: LFBD 230330Z AUTO 26003KT 9999 -RA FEW022/// BKN046/// OVC056/// ///TCU 07/06 Q0999 TEMPO 3000 SHRA BECMG 32015KT
Conditions at: LFBD (BORDEAUX/MERIGNA, FR) observed 0330 UTC 23 January 2019
Temperature: 7.0°C (45°F)
Dewpoint: 6.0°C (43°F) [RH = 93%]
Pressure (altimeter): 29.50 inches Hg (999.0 mb)
Winds: from the W (260 degrees) at 3 MPH (3 knots; 1.5 m/s)
Visibility: 6 or more miles (10+ km)
Ceiling: 4600 feet AGL
Clouds: few clouds at 2200 feet AGL
broken clouds at 4600 feet AGL
overcast cloud deck at 5600 feet AGL
Weather: -RA  (light rain)

METAR text: LFBD 230300Z AUTO 24007KT 9999 -RA FEW032/// BKN074/// OVC092/// ///TCU 07/06 Q1000 TEMPO 3000 SHRA BECMG 32015KT
Conditions at: LFBD (BORDEAUX/MERIGNA, FR) observed 0300 UTC 23 January 2019
Temperature: 7.0°C (45°F)
Dewpoint: 6.0°C (43°F) [RH = 93%]
Pressure (altimeter): 29.53 inches Hg (1000.0 mb)
Winds: from the WSW (240 degrees) at 8 MPH (7 knots; 3.6 m/s)
Visibility: 6 or more miles (10+ km)
Ceiling: 7400 feet AGL
Clouds: few clouds at 3200 feet AGL
broken clouds at 7400 feet AGL
overcast cloud deck at 9200 feet AGL
Weather: -RA  (light rain)

METAR text: LFBD 230230Z AUTO 23007KT 9999 SCT027/// SCT040/// BKN062/// ///TCU 07/06 Q1001 TEMPO 3000 SHRA BECMG 32015KT
Conditions at: LFBD (BORDEAUX/MERIGNA, FR) observed 0230 UTC 23 January 2019
Temperature: 7.0°C (45°F)
Dewpoint: 6.0°C (43°F) [RH = 93%]
Pressure (altimeter): 29.56 inches Hg (1001.0 mb)
Winds: from the SW (230 degrees) at 8 MPH (7 knots; 3.6 m/s)
Visibility: 6 or more miles (10+ km)
Ceiling: 6200 feet AGL
Clouds: scattered clouds at 2700 feet AGL
scattered clouds at 4000 feet AGL
broken clouds at 6200 feet AGL
Weather: no significant weather observed at this time

METAR text: LFBD 230200Z AUTO 25005KT 210V290 9999 FEW026 BKN041 BKN058 07/06 Q1001 TEMPO 3000 SHRA BKN020TCU
Conditions at: LFBD (BORDEAUX/MERIGNA, FR) observed 0200 UTC 23 January 2019
Temperature: 7.0°C (45°F)
Dewpoint: 6.0°C (43°F) [RH = 93%]
Pressure (altimeter): 29.56 inches Hg (1001.0 mb)
Winds: from the WSW (250 degrees) at 6 MPH (5 knots; 2.6 m/s)
Visibility: 6 or more miles (10+ km)
Ceiling: 4100 feet AGL
Clouds: few clouds at 2600 feet AGL
broken clouds at 4100 feet AGL
broken clouds at 5800 feet AGL
Weather: no significant weather observed at this time

METAR text: LFBD 230130Z AUTO 26005KT 9999 FEW028 BKN043 BKN068 06/06 Q1002 TEMPO 3000 SHRA BKN020TCU
Conditions at: LFBD (BORDEAUX/MERIGNA, FR) observed 0130 UTC 23 January 2019
Temperature: 6.0°C (43°F)
Dewpoint: 6.0°C (43°F) [RH = 100%]
Pressure (altimeter): 29.59 inches Hg (1002.0 mb)
Winds: from the W (260 degrees) at 6 MPH (5 knots; 2.6 m/s)
Visibility: 6 or more miles (10+ km)
Ceiling: 4300 feet AGL
Clouds: few clouds at 2800 feet AGL
broken clouds at 4300 feet AGL
broken clouds at 6800 feet AGL
Weather: no significant weather observed at this time

METAR text: LFBD 230100Z AUTO 22005KT 9999 FEW029 SCT040 BKN056 06/05 Q1002 TEMPO 3000 SHRA BKN020TCU
Conditions at: LFBD (BORDEAUX/MERIGNA, FR) observed 0100 UTC 23 January 2019
Temperature: 6.0°C (43°F)
Dewpoint: 5.0°C (41°F) [RH = 93%]
Pressure (altimeter): 29.59 inches Hg (1002.0 mb)
Winds: from the SW (220 degrees) at 6 MPH (5 knots; 2.6 m/s)
Visibility: 6 or more miles (10+ km)
Ceiling: 5600 feet AGL
Clouds: few clouds at 2900 feet AGL
scattered clouds at 4000 feet AGL
broken clouds at 5600 feet AGL
Weather: no significant weather observed at this time

METAR text: LFBD 230030Z AUTO 22005KT 9999 FEW034 SCT040 BKN047 06/05 Q1003 TEMPO 3000 SHRA BKN020TCU
Conditions at: LFBD (BORDEAUX/MERIGNA, FR) observed 0030 UTC 23 January 2019
Temperature: 6.0°C (43°F)
Dewpoint: 5.0°C (41°F) [RH = 93%]
Pressure (altimeter): 29.62 inches Hg (1003.0 mb)
Winds: from the SW (220 degrees) at 6 MPH (5 knots; 2.6 m/s)
Visibility: 6 or more miles (10+ km)
Ceiling: 4700 feet AGL
Clouds: few clouds at 3400 feet AGL
scattered clouds at 4000 feet AGL
broken clouds at 4700 feet AGL
Weather: no significant weather observed at this time

METAR text: LFBD 230000Z AUTO 26006KT 9999 FEW016/// SCT036/// OVC120/// ///TCU 06/05 Q1003 TEMPO 3000 SHRA
Conditions at: LFBD (BORDEAUX/MERIGNA, FR) observed 0000 UTC 23 January 2019
Temperature: 6.0°C (43°F)
Dewpoint: 5.0°C (41°F) [RH = 93%]
Pressure (altimeter): 29.62 inches Hg (1003.0 mb)
Winds: from the W (260 degrees) at 7 MPH (6 knots; 3.1 m/s)
Visibility: 6 or more miles (10+ km)
Ceiling: 12000 feet AGL
Clouds: few clouds at 1600 feet AGL
scattered clouds at 3600 feet AGL
overcast cloud deck at 12000 feet AGL
Weather: no significant weather observed at this time

METAR text: LFBD 222330Z AUTO 22004KT 200V260 9999 FEW025/// SCT032/// BKN041/// ///TCU 06/05 Q1004 TEMPO 3000 SHRA
Conditions at: LFBD (BORDEAUX/MERIGNA, FR) observed 2330 UTC 22 January 2019
Temperature: 6.0°C (43°F)
Dewpoint: 5.0°C (41°F) [RH = 93%]
Pressure (altimeter): 29.65 inches Hg (1004.0 mb)
Winds: from the SW (220 degrees) at 5 MPH (4 knots; 2.1 m/s)
Visibility: 6 or more miles (10+ km)
Ceiling: 4100 feet AGL
Clouds: few clouds at 2500 feet AGL
scattered clouds at 3200 feet AGL
broken clouds at 4100 feet AGL
Weather: no significant weather observed at this time

METAR text: LFBD 222300Z AUTO 00000KT 8000 -RA SCT019/// SCT028/// BKN039/// ///TCU 06/05 Q1004 TEMPO 3000 SHRA
Conditions at: LFBD (BORDEAUX/MERIGNA, FR) observed 2300 UTC 22 January 2019
Temperature: 6.0°C (43°F)
Dewpoint: 5.0°C (41°F) [RH = 93%]
Pressure (altimeter): 29.65 inches Hg (1004.0 mb)
Winds: calm
Visibility: 5 miles ( 8 km)
Ceiling: 3900 feet AGL
Clouds: scattered clouds at 1900 feet AGL
scattered clouds at 2800 feet AGL
broken clouds at 3900 feet AGL
Weather: -RA  (light rain)

METAR text: LFBD 222230Z AUTO 19003KT 9999 SCT025/// SCT042/// BKN058/// ///TCU 06/05 Q1004 TEMPO 3000 SHRA
Conditions at: LFBD (BORDEAUX/MERIGNA, FR) observed 2230 UTC 22 January 2019
Temperature: 6.0°C (43°F)
Dewpoint: 5.0°C (41°F) [RH = 93%]
Pressure (altimeter): 29.65 inches Hg (1004.0 mb)
Winds: from the S (190 degrees) at 3 MPH (3 knots; 1.5 m/s)
Visibility: 6 or more miles (10+ km)
Ceiling: 5800 feet AGL
Clouds: scattered clouds at 2500 feet AGL
scattered clouds at 4200 feet AGL
broken clouds at 5800 feet AGL
Weather: no significant weather observed at this time

METAR text: LFBD 222200Z AUTO 20004KT 9999 FEW010/// SCT037/// BKN056/// ///TCU 06/05 Q1005 TEMPO 3000 SHRA
Conditions at: LFBD (BORDEAUX/MERIGNA, FR) observed 2200 UTC 22 January 2019
Temperature: 6.0°C (43°F)
Dewpoint: 5.0°C (41°F) [RH = 93%]
Pressure (altimeter): 29.68 inches Hg (1005.0 mb)
Winds: from the SSW (200 degrees) at 5 MPH (4 knots; 2.1 m/s)
Visibility: 6 or more miles (10+ km)
Ceiling: 5600 feet AGL
Clouds: few clouds at 1000 feet AGL
scattered clouds at 3700 feet AGL
broken clouds at 5600 feet AGL
Weather: no significant weather observed at this time

METAR text: LFBD 222130Z AUTO VRB03KT 6000 RA SCT008/// BKN015/// BKN020/// ///TCU 06/06 Q1005 TEMPO 3000 SHRA
Conditions at: LFBD (BORDEAUX/MERIGNA, FR) observed 2130 UTC 22 January 2019
Temperature: 6.0°C (43°F)
Dewpoint: 6.0°C (43°F) [RH = 100%]
Pressure (altimeter): 29.68 inches Hg (1005.0 mb)
Winds: variable direction winds at 3 MPH (3 knots; 1.5 m/s)
Visibility: 4 miles ( 6 km)
Ceiling: 1500 feet AGL
Clouds: scattered clouds at 800 feet AGL
broken clouds at 1500 feet AGL
broken clouds at 2000 feet AGL
Weather: RA  (moderate rain)

METAR text: LFBD 222100Z AUTO 17005KT 9999 DZ BKN021/// BKN029/// OVC035/// ///TCU 06/06 Q1005 TEMPO 3000 SHRA
Conditions at: LFBD (BORDEAUX/MERIGNA, FR) observed 2100 UTC 22 January 2019
Temperature: 6.0°C (43°F)
Dewpoint: 6.0°C (43°F) [RH = 100%]
Pressure (altimeter): 29.68 inches Hg (1005.0 mb)
Winds: from the S (170 degrees) at 6 MPH (5 knots; 2.6 m/s)
Visibility: 6 or more miles (10+ km)
Ceiling: 2100 feet AGL
Clouds: broken clouds at 2100 feet AGL
broken clouds at 2900 feet AGL
overcast cloud deck at 3500 feet AGL
Weather: DZ  (moderate drizzle)

METAR text: LFBD 222030Z AUTO 16004KT 5000 -SNRA BR FEW015/// SCT023/// BKN035/// ///TCU 06/06 Q1006 TEMPO SHRA
Conditions at: LFBD (BORDEAUX/MERIGNA, FR) observed 2030 UTC 22 January 2019
Temperature: 6.0°C (43°F)
Dewpoint: 6.0°C (43°F) [RH = 100%]
Pressure (altimeter): 29.70 inches Hg (1006.0 mb)
Winds: from the SSE (160 degrees) at 5 MPH (4 knots; 2.1 m/s)
Visibility: 3 miles ( 5 km)
Ceiling: 3500 feet AGL
Clouds: few clouds at 1500 feet AGL
scattered clouds at 2300 feet AGL
broken clouds at 3500 feet AGL
Weather: -SN -RA BR  (light snow, light rain, mist)

METAR text: LFBD 222000Z AUTO 14002KT 9999 RA BKN028/// OVC037/// ///TCU 06/05 Q1007 TEMPO 3000 SHRA
Conditions at: LFBD (BORDEAUX/MERIGNA, FR) observed 2000 UTC 22 January 2019
Temperature: 6.0°C (43°F)
Dewpoint: 5.0°C (41°F) [RH = 93%]
Pressure (altimeter): 29.73 inches Hg (1007.0 mb)
Winds: from the SE (140 degrees) at 2 MPH (2 knots; 1.0 m/s)
Visibility: 6 or more miles (10+ km)
Ceiling: 2800 feet AGL
Clouds: broken clouds at 2800 feet AGL
overcast cloud deck at 3700 feet AGL
Weather: RA  (moderate rain)

METAR text: LFBD 221930Z AUTO VRB02KT 9999 -RA SCT034/// BKN040/// BKN047/// ///CB 06/05 Q1007 TEMPO 3000 SHRA
Conditions at: LFBD (BORDEAUX/MERIGNA, FR) observed 1930 UTC 22 January 2019
Temperature: 6.0°C (43°F)
Dewpoint: 5.0°C (41°F) [RH = 93%]
Pressure (altimeter): 29.73 inches Hg (1007.0 mb)
Winds: variable direction winds at 2 MPH (2 knots; 1.0 m/s)
Visibility: 6 or more miles (10+ km)
Ceiling: 4000 feet AGL
Clouds: scattered clouds at 3400 feet AGL
broken clouds at 4000 feet AGL
broken clouds at 4700 feet AGL
Weather: -RA  (light rain)

METAR text: LFBD 221900Z AUTO 27004KT 9999 FEW028/// SCT052/// BKN062/// ///TCU 07/05 Q1007 TEMPO 3000 SHRA
Conditions at: LFBD (BORDEAUX/MERIGNA, FR) observed 1900 UTC 22 January 2019
Temperature: 7.0°C (45°F)
Dewpoint: 5.0°C (41°F) [RH = 87%]
Pressure (altimeter): 29.73 inches Hg (1007.0 mb)
Winds: from the W (270 degrees) at 5 MPH (4 knots; 2.1 m/s)
Visibility: 6 or more miles (10+ km)
Ceiling: 6200 feet AGL
Clouds: few clouds at 2800 feet AGL
scattered clouds at 5200 feet AGL
broken clouds at 6200 feet AGL
Weather: no significant weather observed at this time

METAR text: LFBD 221830Z AUTO 26008KT 200V290 9999 -RA BKN030/// BKN038/// BKN052/// ///TCU 06/04 Q1008 TEMPO 3000 SHRA
Conditions at: LFBD (BORDEAUX/MERIGNA, FR) observed 1830 UTC 22 January 2019
Temperature: 6.0°C (43°F)
Dewpoint: 4.0°C (39°F) [RH = 87%]
Pressure (altimeter): 29.76 inches Hg (1008.0 mb)
Winds: from the W (260 degrees) at 9 MPH (8 knots; 4.1 m/s)
Visibility: 6 or more miles (10+ km)
Ceiling: 3000 feet AGL
Clouds: broken clouds at 3000 feet AGL
broken clouds at 3800 feet AGL
broken clouds at 5200 feet AGL
Weather: -RA  (light rain)

METAR text: LFBD 221800Z AUTO 22003KT 9999 -RA BKN034/// BKN042/// BKN058/// ///TCU 06/05 Q1008 TEMPO 3000 SHRA
Conditions at: LFBD (BORDEAUX/MERIGNA, FR) observed 1800 UTC 22 January 2019
Temperature: 6.0°C (43°F)
Dewpoint: 5.0°C (41°F) [RH = 93%]
Pressure (altimeter): 29.76 inches Hg (1008.0 mb)
Winds: from the SW (220 degrees) at 3 MPH (3 knots; 1.5 m/s)
Visibility: 6 or more miles (10+ km)
Ceiling: 3400 feet AGL
Clouds: broken clouds at 3400 feet AGL
broken clouds at 4200 feet AGL
broken clouds at 5800 feet AGL
Weather: -RA  (light rain)

METAR text: LFBD 221730Z AUTO 22004KT 9999 FEW032/// SCT080/// BKN120/// ///TCU 07/05 Q1008 TEMPO 3000 SHRA
Conditions at: LFBD (BORDEAUX/MERIGNA, FR) observed 1730 UTC 22 January 2019
Temperature: 7.0°C (45°F)
Dewpoint: 5.0°C (41°F) [RH = 87%]
Pressure (altimeter): 29.76 inches Hg (1008.0 mb)
Winds: from the SW (220 degrees) at 5 MPH (4 knots; 2.1 m/s)
Visibility: 6 or more miles (10+ km)
Ceiling: 12000 feet AGL
Clouds: few clouds at 3200 feet AGL
scattered clouds at 8000 feet AGL
broken clouds at 12000 feet AGL
Weather: no significant weather observed at this time

METAR text: LFBD 221700Z AUTO 24005KT 9999 SCT038/// BKN056/// BKN070/// ///TCU 07/05 Q1008 TEMPO 30010G20KT 3000 SHRA
Conditions at: LFBD (BORDEAUX/MERIGNA, FR) observed 1700 UTC 22 January 2019
Temperature: 7.0°C (45°F)
Dewpoint: 5.0°C (41°F) [RH = 87%]
Pressure (altimeter): 29.76 inches Hg (1008.0 mb)
Winds: from the WSW (240 degrees) at 6 MPH (5 knots; 2.6 m/s)
Visibility: 6 or more miles (10+ km)
Ceiling: 5600 feet AGL
Clouds: scattered clouds at 3800 feet AGL
broken clouds at 5600 feet AGL
broken clouds at 7000 feet AGL
Weather: no significant weather observed at this time

METAR text: LFBD 221630Z AUTO 29006KT 9999 SCT033/// SCT044/// BKN078/// ///TCU 07/04 Q1008 TEMPO 3000 SHRA
Conditions at: LFBD (BORDEAUX/MERIGNA, FR) observed 1630 UTC 22 January 2019
Temperature: 7.0°C (45°F)
Dewpoint: 4.0°C (39°F) [RH = 81%]
Pressure (altimeter): 29.76 inches Hg (1008.0 mb)
Winds: from the WNW (290 degrees) at 7 MPH (6 knots; 3.1 m/s)
Visibility: 6 or more miles (10+ km)
Ceiling: 7800 feet AGL
Clouds: scattered clouds at 3300 feet AGL
scattered clouds at 4400 feet AGL
broken clouds at 7800 feet AGL
Weather: no significant weather observed at this time

METAR text: LFBD 221600Z AUTO 26005KT 9999 SCT038 SCT047 BKN058 08/04 Q1009 TEMPO SCT020TCU BKN030
Conditions at: LFBD (BORDEAUX/MERIGNA, FR) observed 1600 UTC 22 January 2019
Temperature: 8.0°C (46°F)
Dewpoint: 4.0°C (39°F) [RH = 76%]
Pressure (altimeter): 29.79 inches Hg (1009.0 mb)
Winds: from the W (260 degrees) at 6 MPH (5 knots; 2.6 m/s)
Visibility: 6 or more miles (10+ km)
Ceiling: 5800 feet AGL
Clouds: scattered clouds at 3800 feet AGL
scattered clouds at 4700 feet AGL
broken clouds at 5800 feet AGL
Weather: no significant weather observed at this time

METAR text: LFBD 221530Z AUTO 30007KT 9999 FEW041 OVC150 08/04 Q1009 TEMPO SCT020TCU BKN030
Conditions at: LFBD (BORDEAUX/MERIGNA, FR) observed 1530 UTC 22 January 2019
Temperature: 8.0°C (46°F)
Dewpoint: 4.0°C (39°F) [RH = 76%]
Pressure (altimeter): 29.79 inches Hg (1009.0 mb)
Winds: from the WNW (300 degrees) at 8 MPH (7 knots; 3.6 m/s)
Visibility: 6 or more miles (10+ km)
Ceiling: 15000 feet AGL
Clouds: few clouds at 4100 feet AGL
overcast cloud deck at 15000 feet AGL
Weather: no significant weather observed at this time

METAR text: LFBD 221500Z AUTO 30009KT 9999 FEW049/// BKN150/// OVC190/// ///TCU 09/04 Q1009 NOSIG
Conditions at: LFBD (BORDEAUX/MERIGNA, FR) observed 1500 UTC 22 January 2019
Temperature: 9.0°C (48°F)
Dewpoint: 4.0°C (39°F) [RH = 71%]
Pressure (altimeter): 29.79 inches Hg (1009.0 mb)
Winds: from the WNW (300 degrees) at 10 MPH (9 knots; 4.6 m/s)
Visibility: 6 or more miles (10+ km)
Ceiling: 15000 feet AGL
Clouds: few clouds at 4900 feet AGL
broken clouds at 15000 feet AGL
overcast cloud deck at 19000 feet AGL
Weather: no significant weather observed at this time

METAR text: LFBD 221430Z AUTO 32011KT 9999 FEW043/// SCT170/// OVC190/// ///TCU 09/03 Q1009 NOSIG
Conditions at: LFBD (BORDEAUX/MERIGNA, FR) observed 1430 UTC 22 January 2019
Temperature: 9.0°C (48°F)
Dewpoint: 3.0°C (37°F) [RH = 66%]
Pressure (altimeter): 29.79 inches Hg (1009.0 mb)
Winds: from the NW (320 degrees) at 13 MPH (11 knots; 5.7 m/s)
Visibility: 6 or more miles (10+ km)
Ceiling: 19000 feet AGL
Clouds: few clouds at 4300 feet AGL
scattered clouds at 17000 feet AGL
overcast cloud deck at 19000 feet AGL
Weather: no significant weather observed at this time

METAR text: LFBD 221400Z AUTO 31011KT 9999 FEW034 BKN054 OVC190 09/04 Q1009 TEMPO SCT020TCU BKN030
Conditions at: LFBD (BORDEAUX/MERIGNA, FR) observed 1400 UTC 22 January 2019
Temperature: 9.0°C (48°F)
Dewpoint: 4.0°C (39°F) [RH = 71%]
Pressure (altimeter): 29.79 inches Hg (1009.0 mb)
Winds: from the NW (310 degrees) at 13 MPH (11 knots; 5.7 m/s)
Visibility: 6 or more miles (10+ km)
Ceiling: 5400 feet AGL
Clouds: few clouds at 3400 feet AGL
broken clouds at 5400 feet AGL
overcast cloud deck at 19000 feet AGL
Weather: no significant weather observed at this time

METAR text: LFBD 221330Z AUTO 32011KT 9999 SCT015 SCT023 OVC190 09/06 Q1009 TEMPO SCT020TCU BKN030
Conditions at: LFBD (BORDEAUX/MERIGNA, FR) observed 1330 UTC 22 January 2019
Temperature: 9.0°C (48°F)
Dewpoint: 6.0°C (43°F) [RH = 81%]
Pressure (altimeter): 29.79 inches Hg (1009.0 mb)
Winds: from the NW (320 degrees) at 13 MPH (11 knots; 5.7 m/s)
Visibility: 6 or more miles (10+ km)
Ceiling: 19000 feet AGL
Clouds: scattered clouds at 1500 feet AGL
scattered clouds at 2300 feet AGL
overcast cloud deck at 19000 feet AGL
Weather: no significant weather observed at this time

METAR text: LFBD 221300Z AUTO 31007KT 9999 FEW013 BKN150 OVC190 08/06 Q1009 TEMPO SCT020TCU BKN030
Conditions at: LFBD (BORDEAUX/MERIGNA, FR) observed 1300 UTC 22 January 2019
Temperature: 8.0°C (46°F)
Dewpoint: 6.0°C (43°F) [RH = 87%]
Pressure (altimeter): 29.79 inches Hg (1009.0 mb)
Winds: from the NW (310 degrees) at 8 MPH (7 knots; 3.6 m/s)
Visibility: 6 or more miles (10+ km)
Ceiling: 15000 feet AGL
Clouds: few clouds at 1300 feet AGL
broken clouds at 15000 feet AGL
overcast cloud deck at 19000 feet AGL
Weather: no significant weather observed at this time

METAR text: LFBD 221230Z AUTO 28007KT 9999 FEW026 BKN032 BKN074 07/06 Q1009 TEMPO SCT020TCU BKN030
Conditions at: LFBD (BORDEAUX/MERIGNA, FR) observed 1230 UTC 22 January 2019
Temperature: 7.0°C (45°F)
Dewpoint: 6.0°C (43°F) [RH = 93%]
Pressure (altimeter): 29.79 inches Hg (1009.0 mb)
Winds: from the W (280 degrees) at 8 MPH (7 knots; 3.6 m/s)
Visibility: 6 or more miles (10+ km)
Ceiling: 3200 feet AGL
Clouds: few clouds at 2600 feet AGL
broken clouds at 3200 feet AGL
broken clouds at 7400 feet AGL
Weather: no significant weather observed at this time

METAR text: LFBD 221200Z AUTO 27006KT 9999 FEW008/// SCT045/// OVC066/// ///TCU 06/05 Q1010 BECMG SCT025
Conditions at: LFBD (BORDEAUX/MERIGNA, FR) observed 1200 UTC 22 January 2019
Temperature: 6.0°C (43°F)
Dewpoint: 5.0°C (41°F) [RH = 93%]
Pressure (altimeter): 29.82 inches Hg (1010.0 mb)
Winds: from the W (270 degrees) at 7 MPH (6 knots; 3.1 m/s)
Visibility: 6 or more miles (10+ km)
Ceiling: 6600 feet AGL
Clouds: few clouds at 800 feet AGL
scattered clouds at 4500 feet AGL
overcast cloud deck at 6600 feet AGL
Weather: no significant weather observed at this time

METAR text: LFBD 221130Z AUTO 23005KT 210V270 9999 4200 RA FEW023/// SCT028/// BKN041/// ///TCU 06/05 Q1010 BECMG NSW SCT025
Conditions at: LFBD (BORDEAUX/MERIGNA, FR) observed 1130 UTC 22 January 2019
Temperature: 6.0°C (43°F)
Dewpoint: 5.0°C (41°F) [RH = 93%]
Pressure (altimeter): 29.82 inches Hg (1010.0 mb)
Winds: from the SW (230 degrees) at 6 MPH (5 knots; 2.6 m/s)
Visibility: 6 or more miles (10+ km)
Ceiling: 4100 feet AGL
Clouds: few clouds at 2300 feet AGL
scattered clouds at 2800 feet AGL
broken clouds at 4100 feet AGL
Weather: RA  (moderate rain)

METAR text: LFBD 221100Z AUTO 20006KT 9999 SCT036/// BKN049/// BKN062/// ///TCU 06/05 Q1010 TEMPO 2500 RA BKN005 OVC015 BECMG 32010KT
Conditions at: LFBD (BORDEAUX/MERIGNA, FR) observed 1100 UTC 22 January 2019
Temperature: 6.0°C (43°F)
Dewpoint: 5.0°C (41°F) [RH = 93%]
Pressure (altimeter): 29.82 inches Hg (1010.0 mb)
Winds: from the SSW (200 degrees) at 7 MPH (6 knots; 3.1 m/s)
Visibility: 6 or more miles (10+ km)
Ceiling: 4900 feet AGL
Clouds: scattered clouds at 3600 feet AGL
broken clouds at 4900 feet AGL
broken clouds at 6200 feet AGL
Weather: no significant weather observed at this time

METAR text: LFBD 221030Z AUTO 16006KT 9999 -RA BKN037/// BKN044/// BKN050/// ///TCU 05/05 Q1010 TEMPO 2500 RA BKN005 OVC015 BECMG 32010KT
Conditions at: LFBD (BORDEAUX/MERIGNA, FR) observed 1030 UTC 22 January 2019
Temperature: 5.0°C (41°F)
Dewpoint: 5.0°C (41°F) [RH = 100%]
Pressure (altimeter): 29.82 inches Hg (1010.0 mb)
Winds: from the SSE (160 degrees) at 7 MPH (6 knots; 3.1 m/s)
Visibility: 6 or more miles (10+ km)
Ceiling: 3700 feet AGL
Clouds: broken clouds at 3700 feet AGL
broken clouds at 4400 feet AGL
broken clouds at 5000 feet AGL
Weather: -RA  (light rain)

METAR text: LFBD 221000Z AUTO 24011KT 170V290 4900 +RA BR SCT005/// BKN019/// BKN030/// ///TCU 05/04 Q1011 TEMPO 2500 RA BKN005 OVC015
Conditions at: LFBD (BORDEAUX/MERIGNA, FR) observed 1000 UTC 22 January 2019
Temperature: 5.0°C (41°F)
Dewpoint: 4.0°C (39°F) [RH = 93%]
Pressure (altimeter): 29.85 inches Hg (1011.0 mb)
Winds: from the WSW (240 degrees) at 13 MPH (11 knots; 5.7 m/s)
Visibility: 3 miles ( 5 km)
Ceiling: 1900 feet AGL
Clouds: scattered clouds at 500 feet AGL
broken clouds at 1900 feet AGL
broken clouds at 3000 feet AGL
Weather: +RA BR  (heavy rain, mist)

METAR text: LFBD 220930Z AUTO 18010KT 9000 -RA FEW015/// BKN024/// BKN035/// ///CB 04/04 Q1011 TEMPO 2500 RA BKN005 OVC015
Conditions at: LFBD (BORDEAUX/MERIGNA, FR) observed 0930 UTC 22 January 2019
Temperature: 4.0°C (39°F)
Dewpoint: 4.0°C (39°F) [RH = 100%]
Pressure (altimeter): 29.85 inches Hg (1011.0 mb)
Winds: from the S (180 degrees) at 12 MPH (10 knots; 5.1 m/s)
Visibility: 6 miles ( 9 km)
Ceiling: 2400 feet AGL
Clouds: few clouds at 1500 feet AGL
broken clouds at 2400 feet AGL
broken clouds at 3500 feet AGL
Weather: -RA  (light rain)

METAR text: LFBD 220900Z AUTO 18010KT 9000 -RA SCT026/// BKN036/// BKN044/// ///TCU 04/03 Q1011 TEMPO 2500 RA BKN005 OVC015
Conditions at: LFBD (BORDEAUX/MERIGNA, FR) observed 0900 UTC 22 January 2019
Temperature: 4.0°C (39°F)
Dewpoint: 3.0°C (37°F) [RH = 93%]
Pressure (altimeter): 29.85 inches Hg (1011.0 mb)
Winds: from the S (180 degrees) at 12 MPH (10 knots; 5.1 m/s)
Visibility: 6 miles ( 9 km)
Ceiling: 3600 feet AGL
Clouds: scattered clouds at 2600 feet AGL
broken clouds at 3600 feet AGL
broken clouds at 4400 feet AGL
Weather: -RA  (light rain)

METAR text: LFBD 220830Z AUTO 18010KT 9000 -RA FEW035 OVC054 04/03 Q1012 TEMPO 2500 RA BKN005 OVC015
Conditions at: LFBD (BORDEAUX/MERIGNA, FR) observed 0830 UTC 22 January 2019
Temperature: 4.0°C (39°F)
Dewpoint: 3.0°C (37°F) [RH = 93%]
Pressure (altimeter): 29.88 inches Hg (1012.0 mb)
Winds: from the S (180 degrees) at 12 MPH (10 knots; 5.1 m/s)
Visibility: 6 miles ( 9 km)
Ceiling: 5400 feet AGL
Clouds: few clouds at 3500 feet AGL
overcast cloud deck at 5400 feet AGL
Weather: -RA  (light rain)

METAR text: LFBD 220800Z AUTO 18010KT 9999 -RA BKN035 BKN043 OVC062 03/02 Q1013 TEMPO 2500 RA BKN005 OVC015
Conditions at: LFBD (BORDEAUX/MERIGNA, FR) observed 0800 UTC 22 January 2019
Temperature: 3.0°C (37°F)
Dewpoint: 2.0°C (36°F) [RH = 93%]
Pressure (altimeter): 29.91 inches Hg (1013.0 mb)
Winds: from the S (180 degrees) at 12 MPH (10 knots; 5.1 m/s)
Visibility: 6 or more miles (10+ km)
Ceiling: 3500 feet AGL
Clouds: broken clouds at 3500 feet AGL
broken clouds at 4300 feet AGL
overcast cloud deck at 6200 feet AGL
Weather: -RA  (light rain)

METAR text: LFBD 220730Z AUTO 18009KT 9999 BKN032 BKN038 OVC046 03/01 Q1013 TEMPO 2500 RA BKN005 OVC015
Conditions at: LFBD (BORDEAUX/MERIGNA, FR) observed 0730 UTC 22 January 2019
Temperature: 3.0°C (37°F)
Dewpoint: 1.0°C (34°F) [RH = 87%]
Pressure (altimeter): 29.91 inches Hg (1013.0 mb)
Winds: from the S (180 degrees) at 10 MPH (9 knots; 4.6 m/s)
Visibility: 6 or more miles (10+ km)
Ceiling: 3200 feet AGL
Clouds: broken clouds at 3200 feet AGL
broken clouds at 3800 feet AGL
overcast cloud deck at 4600 feet AGL
Weather: no significant weather observed at this time

METAR text: LFBD 220700Z AUTO 18009KT CAVOK 03/01 Q1014 TEMPO 2500 RA BKN005 OVC015
Conditions at: LFBD (BORDEAUX/MERIGNA, FR) observed 0700 UTC 22 January 2019
Temperature: 3.0°C (37°F)
Dewpoint: 1.0°C (34°F) [RH = 87%]
Pressure (altimeter): 29.94 inches Hg (1014.0 mb)
Winds: from the S (180 degrees) at 10 MPH (9 knots; 4.6 m/s)
Visibility: 6 or more miles (10+ km)
Ceiling: ceiling and visibility are OK
Clouds: unknown
Weather: no significant weather observed at this time

METAR text: LFBD 220630Z AUTO 18009KT CAVOK 03/01 Q1014 TEMPO 2500 RA BKN005 OVC015
Conditions at: LFBD (BORDEAUX/MERIGNA, FR) observed 0630 UTC 22 January 2019
Temperature: 3.0°C (37°F)
Dewpoint: 1.0°C (34°F) [RH = 87%]
Pressure (altimeter): 29.94 inches Hg (1014.0 mb)
Winds: from the S (180 degrees) at 10 MPH (9 knots; 4.6 m/s)
Visibility: 6 or more miles (10+ km)
Ceiling: ceiling and visibility are OK
Clouds: unknown
Weather: no significant weather observed at this time

METAR text: LFBD 220600Z AUTO 18008KT CAVOK 03/00 Q1015 TEMPO 2500 RA BKN005 OVC015
Conditions at: LFBD (BORDEAUX/MERIGNA, FR) observed 0600 UTC 22 January 2019
Temperature: 3.0°C (37°F)
Dewpoint: 0.0°C (32°F) [RH = 81%]
Pressure (altimeter): 29.97 inches Hg (1015.0 mb)
Winds: from the S (180 degrees) at 9 MPH (8 knots; 4.1 m/s)
Visibility: 6 or more miles (10+ km)
Ceiling: ceiling and visibility are OK
Clouds: unknown
Weather: no significant weather observed at this time

METAR text: LFBD 220530Z AUTO 18008KT CAVOK 02/00 Q1015 TEMPO 2500 RA BKN005 OVC015
Conditions at: LFBD (BORDEAUX/MERIGNA, FR) observed 0530 UTC 22 January 2019
Temperature: 2.0°C (36°F)
Dewpoint: 0.0°C (32°F) [RH = 87%]
Pressure (altimeter): 29.97 inches Hg (1015.0 mb)
Winds: from the S (180 degrees) at 9 MPH (8 knots; 4.1 m/s)
Visibility: 6 or more miles (10+ km)
Ceiling: ceiling and visibility are OK
Clouds: unknown
Weather: no significant weather observed at this time

METAR text: LFBD 220500Z AUTO 18008KT 9999 FEW034 SCT070 BKN086 02/M00 Q1016 TEMPO 2500 RA BKN005 OVC015
Conditions at: LFBD (BORDEAUX/MERIGNA, FR) observed 0500 UTC 22 January 2019
Temperature: 2.0°C (36°F)
Dewpoint: 0.0°C (32°F) [RH = 87%]
Pressure (altimeter): 30.00 inches Hg (1016.0 mb)
Winds: from the S (180 degrees) at 9 MPH (8 knots; 4.1 m/s)
Visibility: 6 or more miles (10+ km)
Ceiling: 8600 feet AGL
Clouds: few clouds at 3400 feet AGL
scattered clouds at 7000 feet AGL
broken clouds at 8600 feet AGL
Weather: no significant weather observed at this time

METAR text: LFBD 220430Z AUTO 19007KT 9999 FEW035 SCT150 01/M00 Q1017 TEMPO 2500 RA BKN005 OVC015
Conditions at: LFBD (BORDEAUX/MERIGNA, FR) observed 0430 UTC 22 January 2019
Temperature: 1.0°C (34°F)
Dewpoint: 0.0°C (32°F) [RH = 93%]
Pressure (altimeter): 30.03 inches Hg (1017.0 mb)
Winds: from the S (190 degrees) at 8 MPH (7 knots; 3.6 m/s)
Visibility: 6 or more miles (10+ km)
Ceiling: at least 12,000 feet AGL
Clouds: few clouds at 3500 feet AGL
scattered clouds at 15000 feet AGL
Weather: no significant weather observed at this time

METAR text: LFBD 220400Z AUTO 18007KT 9999 FEW037 BKN150 BKN210 01/M01 Q1017 NOSIG
Conditions at: LFBD (BORDEAUX/MERIGNA, FR) observed 0400 UTC 22 January 2019
Temperature: 1.0°C (34°F)
Dewpoint: -1.0°C (30°F) [RH = 86%]
Pressure (altimeter): 30.03 inches Hg (1017.0 mb)
Winds: from the S (180 degrees) at 8 MPH (7 knots; 3.6 m/s)
Visibility: 6 or more miles (10+ km)
Ceiling: 15000 feet AGL
Clouds: few clouds at 3700 feet AGL
broken clouds at 15000 feet AGL
broken clouds at 21000 feet AGL
Weather: no significant weather observed at this time

METAR text: LFBD 220330Z AUTO 19007KT 9999 FEW038 SCT170 BKN240 01/M01 Q1018 NOSIG
Conditions at: LFBD (BORDEAUX/MERIGNA, FR) observed 0330 UTC 22 January 2019
Temperature: 1.0°C (34°F)
Dewpoint: -1.0°C (30°F) [RH = 86%]
Pressure (altimeter): 30.06 inches Hg (1018.0 mb)
Winds: from the S (190 degrees) at 8 MPH (7 knots; 3.6 m/s)
Visibility: 6 or more miles (10+ km)
Ceiling: 24000 feet AGL
Clouds: few clouds at 3800 feet AGL
scattered clouds at 17000 feet AGL
broken clouds at 24000 feet AGL
Weather: no significant weather observed at this time

METAR text: LFBD 220300Z AUTO 19006KT 9999 BKN038 BKN170 OVC210 01/M01 Q1018 NOSIG
Conditions at: LFBD (BORDEAUX/MERIGNA, FR) observed 0300 UTC 22 January 2019
Temperature: 1.0°C (34°F)
Dewpoint: -1.0°C (30°F) [RH = 86%]
Pressure (altimeter): 30.06 inches Hg (1018.0 mb)
Winds: from the S (190 degrees) at 7 MPH (6 knots; 3.1 m/s)
Visibility: 6 or more miles (10+ km)
Ceiling: 3800 feet AGL
Clouds: broken clouds at 3800 feet AGL
broken clouds at 17000 feet AGL
overcast cloud deck at 21000 feet AGL
Weather: no significant weather observed at this time

METAR text: LFBD 220230Z AUTO 18006KT CAVOK 01/M01 Q1019 NOSIG
Conditions at: LFBD (BORDEAUX/MERIGNA, FR) observed 0230 UTC 22 January 2019
Temperature: 1.0°C (34°F)
Dewpoint: -1.0°C (30°F) [RH = 86%]
Pressure (altimeter): 30.09 inches Hg (1019.0 mb)
Winds: from the S (180 degrees) at 7 MPH (6 knots; 3.1 m/s)
Visibility: 6 or more miles (10+ km)
Ceiling: ceiling and visibility are OK
Clouds: unknown
Weather: no significant weather observed at this time

Forecast for: LFBD (BORDEAUX/MERIGNA, FR)
Text: TAF LFBD 231100Z 2312/2418 33012KT 9999 SCT040 BKN070 TX08/2312Z TN01/2406Z
Forecast period: 1200 to 1800 UTC 23 January 2019
Forecast type: FROM: standard forecast or significant change
Winds: from the NNW (330 degrees) at 14 MPH (12 knots; 6.2 m/s)
Visibility: 6 or more miles 10+ km)
Ceiling: 7000 feet AGL
Clouds: scattered clouds at 4000 feet AGL
broken clouds at 7000 feet AGL
Weather: no significant weather forecast for this period
Text: PROB30
Forecast period: 1200 to 1800 UTC 23 January 2019
Forecast type: TEMPORARY: The following changes expected for less than half the time period
Winds: from the NW (320 degrees) at 17 MPH (15 knots; 7.7 m/s)
gusting to 29 MPH (25 knots; 12.9 m/s)
Visibility: 2.49 miles (4.01 km)
Ceiling: 3000 feet AGL
Clouds: broken clouds at 3000 feet AGL
Weather: -SHRA  (light rain showers)
Text: TEMPO 2312/2318 32015G25KT 4000 -SHRA BKN030TCU
Forecast period: 1800 UTC 23 January 2019 to 1800 UTC 24 January 2019
Forecast type: BECOMING: Conditions expected to become as follows by 2000 UTC 23 January 2019
Winds: from the NNW (330 degrees) at 14 MPH (12 knots; 6.2 m/s)
Visibility: 6 or more miles 10+ km)
Ceiling: unknown
Clouds: missing
Weather: NSW  (no significant weather)